Time;durP1;ratioP1;P1;durP2;ratioP2;P2;SDS_P1;SDS_P2;PMS_P1;PMS_P2;Temp;Humidity;BMP_temperature;BMP_pressure;BME280_temperature;BME280_humidity;BME280_pressure;Samples;Min_cycle;Max_cycle;Signal;HPM_P1;HPM_P2
2023/02/15 00:00:54;;;;;;;;;;;;;;;0.65;100.00;-18044.91;4995735;28;19964;-83
2023/02/15 00:03:20;;;;;;;;;;;;;;;0.65;100.00;-18044.91;4996895;28;19993;-83
2023/02/15 00:05:45;;;;;;;;;;;;;;;0.64;100.00;-18044.75;5007628;28;19921;-82
2023/02/15 00:08:10;;;;;;;;;;;;;;;0.59;100.00;-18043.25;4999751;28;20434;-82
2023/02/15 00:10:35;;;;;;;;;;;;;;;0.55;100.00;-18042.28;4994906;28;20304;-84
2023/02/15 00:13:01;;;;;;;;;;;;;;;0.50;100.00;-18040.88;4995717;28;20311;-82
2023/02/15 00:15:26;;;;;;;;;;;;;;;0.52;100.00;-18041.44;4983487;28;20376;-84
2023/02/15 00:17:51;;;;;;;;;;;;;;;0.49;100.00;-18040.63;4997297;28;20415;-81
2023/02/15 00:20:18;;;;;;;;;;;;;;;0.51;100.00;-18041.03;4988026;28;20541;-85
2023/02/15 00:22:43;;;;;;;;;;;;;;;0.50;100.00;-18040.75;4981002;28;19919;-83
2023/02/15 00:25:08;;;;;;;;;;;;;;;0.48;100.00;-18040.34;4993440;28;19933;-83
2023/02/15 00:27:34;;;;;;;;;;;;;;;0.45;100.00;-18039.50;4994156;28;19918;-80
2023/02/15 00:29:59;;;;;;;;;;;;;;;0.42;100.00;-18038.66;4991280;28;19918;-83
2023/02/15 00:32:25;;;;;;;;;;;;;;;0.43;100.00;-18039.09;4993311;28;19917;-83
2023/02/15 00:34:50;;;;;;;;;;;;;;;0.35;100.00;-18036.72;4994599;28;19922;-81
2023/02/15 00:37:15;;;;;;;;;;;;;;;0.41;100.00;-18038.53;4993801;28;20531;-83
2023/02/15 00:39:40;;;;;;;;;;;;;;;0.49;100.00;-18040.47;4995349;28;19924;-85
2023/02/15 00:42:06;;;;;;;;;;;;;;;0.50;100.00;-18040.75;4989598;28;20304;-86
2023/02/15 00:44:31;;;;;;;;;;;;;;;0.47;100.00;-18039.91;4984316;28;19918;-82
2023/02/15 00:46:56;;;;;;;;;;;;;;;0.41;100.00;-18038.41;4994451;28;19953;-84
2023/02/15 00:49:21;;;;;;;;;;;;;;;0.41;100.00;-18038.41;4992600;28;20553;-84
2023/02/15 00:51:47;;;;;;;;;;;;;;;0.49;100.00;-18040.47;4989735;28;20013;-84
2023/02/15 00:54:12;;;;;;;;;;;;;;;0.48;100.00;-18040.19;4998476;28;19922;-83
2023/02/15 00:56:37;;;;;;;;;;;;;;;0.45;100.00;-18039.50;4997157;28;19937;-83
2023/02/15 00:59:02;;;;;;;;;;;;;;;0.45;100.00;-18039.63;4993035;28;19922;-82
2023/02/15 01:01:28;;;;;;;;;;;;;;;0.36;100.00;-18037.16;4992181;28;19937;-82
2023/02/15 01:03:53;;;;;;;;;;;;;;;0.32;100.00;-18035.91;4999023;28;20486;-82
2023/02/15 01:06:18;;;;;;;;;;;;;;;0.35;100.00;-18036.72;4990446;28;19926;-84
2023/02/15 01:08:45;;;;;;;;;;;;;;;0.38;100.00;-18037.69;4990250;28;20347;-85
2023/02/15 01:11:11;;;;;;;;;;;;;;;0.36;100.00;-18037.16;4994905;28;20008;-82
2023/02/15 01:13:37;;;;;;;;;;;;;;;0.39;100.00;-18037.84;4991060;28;19946;-82
2023/02/15 01:16:03;;;;;;;;;;;;;;;0.36;100.00;-18037.00;4996730;28;20398;-81
2023/02/15 01:18:28;;;;;;;;;;;;;;;0.30;100.00;-18035.34;5000032;28;20012;-80
2023/02/15 01:20:53;;;;;;;;;;;;;;;0.26;100.00;-18034.22;4998998;28;19957;-81
2023/02/15 01:23:19;;;;;;;;;;;;;;;0.29;100.00;-18035.22;4993224;28;19921;-81
2023/02/15 01:25:44;;;;;;;;;;;;;;;0.29;100.00;-18035.06;4997861;28;19961;-83
2023/02/15 01:28:10;;;;;;;;;;;;;;;0.28;100.00;-18034.94;4991156;28;19922;-83
2023/02/15 01:30:35;;;;;;;;;;;;;;;0.28;100.00;-18034.78;4993383;28;19936;-84
2023/02/15 01:33:00;;;;;;;;;;;;;;;0.29;100.00;-18035.06;4993882;28;20390;-83
2023/02/15 01:35:26;;;;;;;;;;;;;;;0.23;100.00;-18033.53;4992582;28;19956;-84
2023/02/15 01:37:51;;;;;;;;;;;;;;;0.19;100.00;-18032.56;4993804;28;19922;-81
2023/02/15 01:40:17;;;;;;;;;;;;;;;0.18;100.00;-18032.16;4990909;28;19941;-83
2023/02/15 01:42:43;;;;;;;;;;;;;;;0.20;100.00;-18032.84;4997731;28;19929;-83
2023/02/15 01:45:11;;;;;;;;;;;;;;;0.21;100.00;-18033.00;4994422;28;19925;-84
2023/02/15 01:47:36;;;;;;;;;;;;;;;0.17;100.00;-18032.03;4994174;28;19921;-83
2023/02/15 01:50:08;;;;;;;;;;;;;;;0.16;100.00;-18031.75;4995876;28;20710;-82
2023/02/15 01:52:36;;;;;;;;;;;;;;;0.09;100.00;-18029.66;4995983;28;19922;-82
2023/02/15 01:55:02;;;;;;;;;;;;;;;0.05;100.00;-18028.69;4995600;28;19977;-82
2023/02/15 01:57:28;;;;;;;;;;;;;;;0.03;100.00;-18028.16;4989209;28;20012;-82
2023/02/15 01:59:55;;;;;;;;;;;;;;;-0.02;100.00;-18026.75;4992263;28;19984;-82
2023/02/15 02:02:24;;;;;;;;;;;;;;;-0.01;100.00;-18027.03;4988130;28;19921;-82
2023/02/15 02:04:51;;;;;;;;;;;;;;;-0.03;100.00;-18026.63;5001547;28;19929;-81
2023/02/15 02:07:19;;;;;;;;;;;;;;;-0.05;100.00;-18026.06;4992955;28;19921;-84
2023/02/15 02:09:45;;;;;;;;;;;;;;;-0.02;100.00;-18026.75;4990706;28;19922;-83
2023/02/15 02:12:10;;;;;;;;;;;;;;;-0.02;100.00;-18026.75;4992192;28;20347;-82
2023/02/15 02:14:36;;;;;;;;;;;;;;;-0.02;100.00;-18026.91;4991935;28;19930;-83
2023/02/15 02:17:16;;;;;;;;;;;;;;;0.00;100.00;-18027.31;4991949;28;19973;-82
2023/02/15 02:19:53;;;;;;;;;;;;;;;-0.04;100.00;-18026.34;4996186;28;19922;-82
2023/02/15 02:22:37;;;;;;;;;;;;;;;-0.04;100.00;-18026.19;4994827;28;21017;-83
2023/02/15 02:25:21;;;;;;;;;;;;;;;-0.10;100.00;-18024.69;4977522;28;20418;-82
2023/02/15 02:28:02;;;;;;;;;;;;;;;-0.06;100.00;-18025.78;4991641;28;19968;-84
2023/02/15 02:30:27;;;;;;;;;;;;;;;0.01;100.00;-18027.59;5001429;28;20322;-82
2023/02/15 02:32:55;;;;;;;;;;;;;;;0.03;100.00;-18028.16;4995540;28;19922;-83
2023/02/15 02:35:33;;;;;;;;;;;;;;;-0.03;100.00;-18026.47;4988061;28;19949;-84
2023/02/15 02:38:01;;;;;;;;;;;;;;;-0.05;100.00;-18026.06;4994402;28;19926;-84
2023/02/15 02:40:45;;;;;;;;;;;;;;;-0.02;100.00;-18026.75;4992267;28;20351;-84
2023/02/15 02:43:15;;;;;;;;;;;;;;;-0.03;100.00;-18026.47;4996140;28;19968;-84
2023/02/15 02:45:47;;;;;;;;;;;;;;;-0.07;100.00;-18025.38;4992567;28;19925;-81
2023/02/15 02:48:15;;;;;;;;;;;;;;;-0.06;100.00;-18025.66;4996049;28;19922;-83
2023/02/15 02:50:40;;;;;;;;;;;;;;;-0.10;100.00;-18024.53;4995156;28;19961;-83
2023/02/15 02:53:05;;;;;;;;;;;;;;;-0.17;100.00;-18022.75;4998733;28;20288;-83
2023/02/15 02:55:31;;;;;;;;;;;;;;;-0.17;100.00;-18022.59;4997537;28;19968;-83
2023/02/15 02:58:16;;;;;;;;;;;;;;;-0.17;100.00;-18022.59;4992929;28;19922;-83
2023/02/15 03:01:05;;;;;;;;;;;;;;;-0.16;100.00;-18023.00;4994892;28;19983;-85
2023/02/15 03:03:33;;;;;;;;;;;;;;;-0.14;100.00;-18023.44;4996918;28;19957;-83
2023/02/15 03:06:02;;;;;;;;;;;;;;;-0.17;100.00;-18022.75;4994425;28;19945;-83
2023/02/15 03:08:33;;;;;;;;;;;;;;;-0.20;100.00;-18021.91;4994700;28;19971;-83
2023/02/15 03:11:00;;;;;;;;;;;;;;;-0.22;100.00;-18021.22;4998290;28;19925;-84
2023/02/15 03:13:26;;;;;;;;;;;;;;;-0.24;100.00;-18020.94;5003513;28;19929;-85
2023/02/15 03:18:42;;;;;;;;;;;;;;;-0.29;100.00;-18019.56;4990404;28;20414;-84
2023/02/15 03:21:09;;;;;;;;;;;;;;;-0.31;100.00;-18019.00;4994378;28;19943;-84
2023/02/15 03:23:35;;;;;;;;;;;;;;;-0.31;100.00;-18019.00;4996145;28;19929;-85
2023/02/15 03:26:05;;;;;;;;;;;;;;;-0.34;100.00;-18018.16;4989505;28;20600;-83
2023/02/15 03:28:32;;;;;;;;;;;;;;;-0.30;100.00;-18019.13;4990458;28;19953;-84
2023/02/15 03:31:00;;;;;;;;;;;;;;;-0.31;100.00;-18018.84;4985979;28;19929;-84
2023/02/15 03:33:26;;;;;;;;;;;;;;;-0.33;100.00;-18018.44;4982670;28;19936;-83
2023/02/15 03:35:51;;;;;;;;;;;;;;;-0.27;100.00;-18019.97;4985906;28;20004;-83
2023/02/15 03:38:19;;;;;;;;;;;;;;;-0.24;100.00;-18020.78;4996324;28;20439;-84
2023/02/15 03:43:36;;;;;;;;;;;;;;;-0.29;100.00;-18019.56;4988585;28;19945;-83
2023/02/15 03:46:11;;;;;;;;;;;;;;;-0.30;100.00;-18019.13;4986126;28;19922;-83
2023/02/15 03:48:39;;;;;;;;;;;;;;;-0.31;100.00;-18019.00;4990432;28;19965;-82
2023/02/15 03:53:54;;;;;;;;;;;;;;;-0.32;100.00;-18018.72;4998360;28;19929;-83
2023/02/15 03:56:19;;;;;;;;;;;;;;;-0.32;100.00;-18018.72;4980615;28;19948;-83
2023/02/15 04:04:11;;;;;;;;;;;;;;;-0.39;100.00;-18016.63;4989081;28;20266;-84
2023/02/15 04:06:37;;;;;;;;;;;;;;;-0.40;100.00;-18016.38;4986565;28;19933;-84
2023/02/15 04:11:46;;;;;;;;;;;;;;;-0.49;100.00;-18014.16;4979442;28;19945;-83
2023/02/15 04:16:54;;;;;;;;;;;;;;;-0.55;100.00;-18012.47;5001313;28;20006;-84
2023/02/15 04:27:31;;;;;;;;;;;;;;;-0.64;100.00;-18009.84;4986009;28;19929;-84
2023/02/15 04:29:56;;;;;;;;;;;;;;;-0.62;100.00;-18010.41;4987234;28;19925;-84
2023/02/15 04:32:22;;;;;;;;;;;;;;;-0.64;100.00;-18009.84;4986980;28;20021;-84
2023/02/15 04:34:47;;;;;;;;;;;;;;;-0.69;100.00;-18008.75;4990016;28;19973;-84
2023/02/15 04:37:12;;;;;;;;;;;;;;;-0.72;100.00;-18007.91;4988213;28;19977;-83
2023/02/15 04:39:38;;;;;;;;;;;;;;;-0.74;100.00;-18007.34;4993866;28;19918;-84
2023/02/15 04:42:03;;;;;;;;;;;;;;;-0.74;100.00;-18007.34;4988993;28;19937;-83
2023/02/15 04:44:28;;;;;;;;;;;;;;;-0.75;100.00;-18007.06;4987015;28;19918;-83
2023/02/15 04:46:54;;;;;;;;;;;;;;;-0.76;100.00;-18006.66;4995396;28;20418;-83
2023/02/15 04:49:19;;;;;;;;;;;;;;;-0.77;100.00;-18006.53;4992653;28;19922;-83
2023/02/15 04:51:45;;;;;;;;;;;;;;;-0.79;100.00;-18005.97;4989686;28;19953;-84
2023/02/15 04:54:10;;;;;;;;;;;;;;;-0.81;100.00;-18005.41;4991825;28;19980;-84
2023/02/15 04:56:37;;;;;;;;;;;;;;;-0.81;100.00;-18005.41;4984692;28;20335;-84
2023/02/15 04:59:03;;;;;;;;;;;;;;;-0.81;100.00;-18005.41;4994289;28;20001;-84
2023/02/15 05:01:28;;;;;;;;;;;;;;;-0.81;100.00;-18005.41;4990985;28;19922;-84
2023/02/15 05:03:53;;;;;;;;;;;;;;;-0.84;100.00;-18004.56;4993402;28;19969;-84
2023/02/15 05:06:18;;;;;;;;;;;;;;;-0.84;100.00;-18004.56;4990974;28;19926;-83
2023/02/15 05:08:43;;;;;;;;;;;;;;;-0.87;100.00;-18003.59;5005386;28;19922;-83
2023/02/15 05:11:09;;;;;;;;;;;;;;;-0.86;100.00;-18004.03;5005377;28;19925;-84
2023/02/15 05:13:34;;;;;;;;;;;;;;;-0.84;100.00;-18004.44;4985784;28;19928;-83
2023/02/15 05:15:59;;;;;;;;;;;;;;;-0.88;100.00;-18003.47;4988607;28;19936;-83
2023/02/15 05:18:24;;;;;;;;;;;;;;;-0.89;100.00;-18003.19;4992438;28;20013;-83
2023/02/15 05:20:50;;;;;;;;;;;;;;;-0.87;100.00;-18003.75;4998739;28;20375;-84
2023/02/15 05:23:15;;;;;;;;;;;;;;;-0.88;100.00;-18003.34;4991843;28;19925;-85
2023/02/15 05:28:26;;;;;;;;;;;;;;;-0.80;100.00;-18005.69;4984635;28;19933;-84
2023/02/15 05:31:11;;;;;;;;;;;;;;;-0.80;100.00;-18005.69;4989076;28;19972;-85
2023/02/15 05:33:36;;;;;;;;;;;;;;;-0.84;100.00;-18004.56;4988802;28;19922;-84
2023/02/15 05:36:02;;;;;;;;;;;;;;;-0.78;100.00;-18006.25;4992898;28;19933;-85
2023/02/15 05:38:28;;;;;;;;;;;;;;;-0.68;100.00;-18008.88;4998271;28;19928;-85
2023/02/15 05:40:53;;;;;;;;;;;;;;;-0.64;100.00;-18010.00;4990979;28;19930;-85
2023/02/15 05:43:18;;;;;;;;;;;;;;;-0.57;100.00;-18011.94;4986460;28;19928;-83
2023/02/15 05:45:45;;;;;;;;;;;;;;;-0.59;100.00;-18011.22;4995384;28;19969;-85
2023/02/15 05:48:10;;;;;;;;;;;;;;;-0.65;100.00;-18009.56;5003794;28;19972;-85
2023/02/15 05:50:35;;;;;;;;;;;;;;;-0.69;100.00;-18008.59;4994063;28;19918;-85
2023/02/15 05:53:00;;;;;;;;;;;;;;;-0.68;100.00;-18009.00;4992462;28;19996;-85
2023/02/15 05:55:26;;;;;;;;;;;;;;;-0.70;100.00;-18008.31;4989041;28;19953;-85
2023/02/15 05:57:51;;;;;;;;;;;;;;;-0.65;100.00;-18009.56;4988383;28;19969;-85
2023/02/15 06:00:17;;;;;;;;;;;;;;;-0.63;100.00;-18010.25;4993121;28;19957;-85
2023/02/15 06:02:42;;;;;;;;;;;;;;;-0.58;100.00;-18011.50;4999769;28;19922;-84
2023/02/15 06:05:07;;;;;;;;;;;;;;;-0.60;100.00;-18010.97;4993800;28;19987;-84
2023/02/15 06:07:33;;;;;;;;;;;;;;;-0.65;100.00;-18009.56;4996394;28;20012;-84
2023/02/15 06:09:58;;;;;;;;;;;;;;;-0.60;100.00;-18011.09;4984337;28;19922;-84
2023/02/15 06:12:23;;;;;;;;;;;;;;;-0.55;100.00;-18012.47;4987909;28;19956;-84
2023/02/15 06:14:49;;;;;;;;;;;;;;;-0.58;100.00;-18011.66;4991533;28;19918;-84
2023/02/15 06:17:14;;;;;;;;;;;;;;;-0.49;100.00;-18014.16;4987449;28;19937;-85
2023/02/15 06:19:39;;;;;;;;;;;;;;;-0.45;100.00;-18015.13;4991171;28;19992;-84
2023/02/15 06:22:06;;;;;;;;;;;;;;;-0.48;100.00;-18014.41;4991508;28;19924;-84
2023/02/15 06:24:31;;;;;;;;;;;;;;;-0.49;100.00;-18014.00;4991377;28;20362;-83
2023/02/15 06:26:56;;;;;;;;;;;;;;;-0.44;100.00;-18015.25;4991197;28;19989;-84
2023/02/15 06:29:21;;;;;;;;;;;;;;;-0.48;100.00;-18014.41;4989913;28;20335;-83
2023/02/15 06:31:46;;;;;;;;;;;;;;;-0.46;100.00;-18014.84;4991921;28;19960;-83
2023/02/15 06:34:12;;;;;;;;;;;;;;;-0.48;100.00;-18014.28;4991006;28;19933;-83
2023/02/15 06:36:37;;;;;;;;;;;;;;;-0.47;100.00;-18014.56;4983226;28;19985;-82
2023/02/15 06:39:03;;;;;;;;;;;;;;;-0.50;100.00;-18013.88;4997591;28;19953;-82
2023/02/15 06:41:28;;;;;;;;;;;;;;;-0.52;100.00;-18013.19;4995465;28;20363;-82
2023/02/15 06:43:54;;;;;;;;;;;;;;;-0.53;100.00;-18012.91;4996145;28;20159;-82
2023/02/15 06:46:19;;;;;;;;;;;;;;;-0.53;100.00;-18012.91;4992080;28;19948;-82
2023/02/15 06:48:44;;;;;;;;;;;;;;;-0.49;100.00;-18014.00;4989616;28;20303;-82
2023/02/15 06:51:09;;;;;;;;;;;;;;;-0.52;100.00;-18013.19;4988822;28;19918;-82
2023/02/15 06:53:35;;;;;;;;;;;;;;;-0.59;100.00;-18011.22;4989323;28;19918;-83
2023/02/15 06:56:02;;;;;;;;;;;;;;;-0.60;100.00;-18011.09;4990060;28;20061;-82
2023/02/15 06:58:27;;;;;;;;;;;;;;;-0.53;100.00;-18012.91;4988344;28;19922;-83
2023/02/15 07:00:53;;;;;;;;;;;;;;;-0.41;100.00;-18016.09;4990450;28;20410;-84
2023/02/15 07:03:18;;;;;;;;;;;;;;;-0.29;100.00;-18019.41;4976985;28;20307;-83
2023/02/15 07:05:44;;;;;;;;;;;;;;;-0.13;100.00;-18023.84;4988809;28;19922;-85
2023/02/15 07:08:09;;;;;;;;;;;;;;;-0.02;100.00;-18026.75;4990276;28;19921;-83
2023/02/15 07:10:34;;;;;;;;;;;;;;;-0.02;100.00;-18026.75;4989294;28;19918;-85
2023/02/15 07:13:00;;;;;;;;;;;;;;;0.10;100.00;-18030.09;4984399;28;20315;-83
2023/02/15 07:15:25;;;;;;;;;;;;;;;0.11;100.00;-18030.34;4987623;28;19918;-83
2023/02/15 07:17:50;;;;;;;;;;;;;;;0.20;100.00;-18032.72;4977700;28;19968;-82
2023/02/15 07:20:17;;;;;;;;;;;;;;;0.26;100.00;-18034.22;4990464;28;20009;-83
2023/02/15 07:22:43;;;;;;;;;;;;;;;0.33;100.00;-18036.19;4988973;28;20390;-83
2023/02/15 07:25:09;;;;;;;;;;;;;;;0.39;100.00;-18037.97;4989874;28;20033;-83
2023/02/15 07:27:34;;;;;;;;;;;;;;;0.47;100.00;-18039.91;4988532;28;19918;-83
2023/02/15 07:30:00;;;;;;;;;;;;;;;0.52;100.00;-18041.44;4986248;28;20368;-83
2023/02/15 07:32:29;;;;;;;;;;;;;;;0.55;100.00;-18042.28;4988311;28;19918;-83
2023/02/15 07:34:54;;;;;;;;;;;;;;;0.58;100.00;-18043.09;4985997;28;20104;-83
2023/02/15 07:37:20;;;;;;;;;;;;;;;0.62;100.00;-18044.22;4996671;28;19972;-83
2023/02/15 07:39:45;;;;;;;;;;;;;;;0.65;100.00;-18044.91;4989247;28;20420;-83
2023/02/15 07:42:10;;;;;;;;;;;;;;;0.72;100.00;-18046.84;4989081;28;19925;-83
2023/02/15 07:44:35;;;;;;;;;;;;;;;0.78;100.00;-18048.38;4989912;28;19953;-83
2023/02/15 07:47:01;;;;;;;;;;;;;;;0.84;100.00;-18050.16;4984663;28;19922;-84
2023/02/15 07:49:26;;;;;;;;;;;;;;;0.93;100.00;-18052.53;4980780;28;19918;-83
2023/02/15 07:51:51;;;;;;;;;;;;;;;0.97;100.00;-18053.63;4990106;28;19922;-84
2023/02/15 07:54:16;;;;;;;;;;;;;;;1.02;100.00;-18055.00;4990107;28;20612;-83
2023/02/15 07:56:42;;;;;;;;;;;;;;;1.08;100.00;-18056.53;4987211;28;19937;-83
2023/02/15 07:59:08;;;;;;;;;;;;;;;1.15;100.00;-18058.34;4988012;28;20407;-84
2023/02/15 08:01:36;;;;;;;;;;;;;;;1.20;100.00;-18059.72;4989640;28;19937;-84
2023/02/15 08:04:02;;;;;;;;;;;;;;;1.25;100.00;-18061.09;4989169;28;20343;-84
2023/02/15 08:06:29;;;;;;;;;;;;;;;1.31;100.00;-18062.75;4988184;28;19930;-84
2023/02/15 08:08:55;;;;;;;;;;;;;;;1.33;100.00;-18063.31;4992128;28;20001;-84
2023/02/15 08:11:35;;;;;;;;;;;;;;;1.38;100.00;-18064.56;4990873;28;20013;-84
2023/02/15 08:14:03;;;;;;;;;;;;;;;1.46;100.00;-18066.78;5002987;28;19933;-85
2023/02/15 08:16:38;;;;;;;;;;;;;;;1.52;100.00;-18068.44;4990527;28;19925;-84
2023/02/15 08:19:07;;;;;;;;;;;;;;;1.57;100.00;-18069.97;4987515;28;19922;-84
2023/02/15 08:21:33;;;;;;;;;;;;;;;1.65;100.00;-18072.03;4990771;28;19922;-84
2023/02/15 08:23:59;;;;;;;;;;;;;;;1.72;100.00;-18073.84;4993002;28;20012;-85
2023/02/15 08:26:25;;;;;;;;;;;;;;;1.76;100.00;-18075.09;4991223;28;19940;-82
2023/02/15 08:28:51;;;;;;;;;;;;;;;1.83;100.00;-18076.88;4991148;28;19961;-82
2023/02/15 08:31:16;;;;;;;;;;;;;;;1.88;100.00;-18078.25;4992805;28;20027;-83
2023/02/15 08:33:43;;;;;;;;;;;;;;;1.96;100.00;-18080.34;4989452;28;20017;-82
2023/02/15 08:36:10;;;;;;;;;;;;;;;2.02;100.00;-18082.13;4989562;28;19925;-82
2023/02/15 08:38:35;;;;;;;;;;;;;;;2.08;100.00;-18083.66;4985752;28;20435;-83
2023/02/15 08:41:14;;;;;;;;;;;;;;;2.16;100.00;-18085.75;4992750;28;20000;-83
2023/02/15 08:43:40;;;;;;;;;;;;;;;2.22;100.00;-18087.53;4991736;28;19922;-83
2023/02/15 08:46:06;;;;;;;;;;;;;;;2.27;100.00;-18088.78;4991385;28;19976;-84
2023/02/15 08:48:31;;;;;;;;;;;;;;;2.35;100.00;-18091.00;4991158;28;19922;-82
2023/02/15 08:50:56;;;;;;;;;;;;;;;2.41;100.00;-18092.66;4988001;28;19928;-81
2023/02/15 08:53:22;;;;;;;;;;;;;;;2.47;100.00;-18094.16;4989411;28;19948;-81
2023/02/15 08:55:54;;;;;;;;;;;;;;;2.55;100.00;-18096.25;4985064;28;19922;-84
2023/02/15 08:58:19;;;;;;;;;;;;;;;2.65;100.00;-18099.16;4990178;28;19922;-82
2023/02/15 09:00:45;;;;;;;;;;;;;;;2.77;100.00;-18102.19;4990215;28;19972;-85
2023/02/15 09:03:10;;;;;;;;;;;;;;;2.86;100.00;-18104.69;4991154;28;20523;-84
2023/02/15 09:05:35;;;;;;;;;;;;;;;2.92;100.00;-18106.47;4989000;28;19926;-85
2023/02/15 09:08:00;;;;;;;;;;;;;;;2.97;100.00;-18107.72;4992997;28;20009;-81
2023/02/15 09:10:25;;;;;;;;;;;;;;;3.06;100.00;-18110.06;4993100;28;19922;-82
2023/02/15 09:12:51;;;;;;;;;;;;;;;3.17;100.00;-18113.13;4994546;28;19990;-83
2023/02/15 09:15:16;;;;;;;;;;;;;;;3.21;100.00;-18114.09;4986183;28;20399;-82
2023/02/15 09:17:42;;;;;;;;;;;;;;;3.26;100.00;-18115.59;4989646;28;19926;-83
2023/02/15 09:20:07;;;;;;;;;;;;;;;3.31;100.00;-18116.84;4984062;28;19932;-82
2023/02/15 09:22:32;;;;;;;;;;;;;;;3.41;100.00;-18119.63;4987021;28;20327;-81
2023/02/15 09:24:58;;;;;;;;;;;;;;;3.46;100.00;-18121.00;4984396;28;19946;-83
2023/02/15 09:27:23;;;;;;;;;;;;;;;3.50;100.00;-18121.97;4986668;28;19997;-82
2023/02/15 09:29:48;;;;;;;;;;;;;;;3.59;100.00;-18124.59;4988320;28;19928;-81
2023/02/15 09:32:14;;;;;;;;;;;;;;;3.71;100.00;-18127.78;4990109;28;20004;-82
2023/02/15 09:34:39;;;;;;;;;;;;;;;3.79;100.00;-18129.84;4989410;28;19949;-83
2023/02/15 09:37:05;;;;;;;;;;;;;;;3.87;100.00;-18131.91;4990609;28;19925;-82
2023/02/15 09:39:30;;;;;;;;;;;;;;;3.95;100.00;-18134.13;4985783;28;20447;-83
2023/02/15 09:42:04;;;;;;;;;;;;;;;4.06;100.00;-18137.16;4988172;28;19925;-82
2023/02/15 09:44:35;;;;;;;;;;;;;;;4.11;100.00;-18138.53;4988653;28;19953;-82
2023/02/15 09:47:16;;;;;;;;;;;;;;;4.19;100.00;-18140.75;4975652;28;20555;-82
2023/02/15 09:50:00;;;;;;;;;;;;;;;4.27;100.00;-18142.97;4988362;28;19972;-82
2023/02/15 09:52:25;;;;;;;;;;;;;;;4.41;100.00;-18146.69;4987642;28;20403;-82
2023/02/15 09:54:53;;;;;;;;;;;;;;;4.52;100.00;-18149.72;4988355;28;19961;-82
2023/02/15 09:57:18;;;;;;;;;;;;;;;4.64;100.00;-18152.78;4990806;28;19929;-82
2023/02/15 10:00:04;;;;;;;;;;;;;;;4.70;100.00;-18154.56;4987699;28;19928;-82
2023/02/15 10:02:29;;;;;;;;;;;;;;;4.80;100.00;-18157.03;4978462;28;20008;-82
2023/02/15 10:05:02;;;;;;;;;;;;;;;4.88;100.00;-18159.38;4990480;28;20274;-82
2023/02/15 10:08:00;;;;;;;;;;;;;;;4.98;100.00;-18162.03;4988358;28;19948;-82
2023/02/15 10:10:28;;;;;;;;;;;;;;;5.12;100.00;-18165.75;4951830;28;19954;-83
2023/02/15 10:13:26;;;;;;;;;;;;;;;5.18;100.00;-18167.53;4987524;28;19930;-82
2023/02/15 10:16:10;;;;;;;;;;;;;;;5.37;100.00;-18172.50;4970378;28;20288;-82
2023/02/15 10:18:54;;;;;;;;;;;;;;;5.44;100.00;-18174.44;4988240;28;19969;-82
2023/02/15 10:21:30;;;;;;;;;;;;;;;5.57;100.00;-18178.03;4990018;28;19921;-82
2023/02/15 10:24:07;;;;;;;;;;;;;;;5.58;100.00;-18178.31;4983219;28;20001;-82
2023/02/15 10:26:48;;;;;;;;;;;;;;;5.71;100.00;-18181.63;4986584;28;19929;-82
2023/02/15 10:29:37;;;;;;;;;;;;;;;5.75;100.00;-18182.84;4990438;28;19926;-82
2023/02/15 10:32:05;;;;;;;;;;;;;;;5.80;100.00;-18184.09;4950092;28;19965;-82
2023/02/15 10:34:43;;;;;;;;;;;;;;;5.86;100.00;-18185.75;4984183;28;19929;-82
2023/02/15 10:37:09;;;;;;;;;;;;;;;5.88;100.00;-18186.31;4990456;28;19926;-82
2023/02/15 10:39:43;;;;;;;;;;;;;;;5.97;100.00;-18188.78;4984177;28;19929;-83
2023/02/15 10:42:08;;;;;;;;;;;;;;;6.08;100.00;-18191.81;4989114;28;20068;-82
2023/02/15 10:44:39;;;;;;;;;;;;;;;6.15;100.00;-18193.63;4988342;28;20001;-83
2023/02/15 10:47:04;;;;;;;;;;;;;;;6.22;100.00;-18195.41;4989187;28;19937;-83
2023/02/15 10:49:42;;;;;;;;;;;;;;;6.32;100.00;-18198.31;4986461;28;19921;-82
2023/02/15 10:52:13;;;;;;;;;;;;;;;6.45;100.00;-18201.75;4990639;28;19921;-82
2023/02/15 10:54:48;;;;;;;;;;;;;;;6.53;100.00;-18203.97;4989140;28;19965;-82
2023/02/15 10:57:25;;;;;;;;;;;;;;;6.61;100.00;-18205.88;4988337;28;20400;-82
2023/02/15 11:00:05;;;;;;;;;;;;;;;6.68;100.00;-18207.97;4990266;28;19949;-82
2023/02/15 11:02:34;;;;;;;;;;;;;;;6.80;100.00;-18211.13;4987725;28;19991;-83
2023/02/15 11:05:15;;;;;;;;;;;;;;;6.89;100.00;-18213.59;4983248;28;19968;-83
2023/02/15 11:07:43;;;;;;;;;;;;;;;6.98;100.00;-18216.09;4987948;28;19964;-82
2023/02/15 11:10:27;;;;;;;;;;;;;;;7.04;100.00;-18217.47;4990139;28;19929;-82
2023/02/15 11:12:54;;;;;;;;;;;;;;;7.15;100.00;-18220.50;4990234;28;20068;-82
2023/02/15 11:15:25;;;;;;;;;;;;;;;7.29;100.00;-18224.34;4979991;28;19926;-82
2023/02/15 11:18:05;;;;;;;;;;;;;;;7.38;100.00;-18226.69;4987878;28;19921;-82
2023/02/15 11:20:32;;;;;;;;;;;;;;;7.45;100.00;-18228.75;4988709;28;19922;-82
2023/02/15 11:22:58;;;;;;;;;;;;;;;7.56;100.00;-18231.53;4986332;28;20434;-82
2023/02/15 11:25:25;;;;;;;;;;;;;;;7.70;100.00;-18235.38;4987768;28;19921;-82
2023/02/15 11:27:51;;;;;;;;;;;;;;;7.82;100.00;-18238.69;4987010;28;19922;-82
2023/02/15 11:30:21;;;;;;;;;;;;;;;7.90;100.00;-18240.88;4984868;28;20782;-83
2023/02/15 11:32:49;;;;;;;;;;;;;;;8.01;100.00;-18243.63;4987243;28;19922;-82
2023/02/15 11:35:15;;;;;;;;;;;;;;;8.10;100.00;-18246.13;4987910;28;19945;-83
2023/02/15 11:37:48;;;;;;;;;;;;;;;8.15;100.00;-18247.50;4988614;28;20392;-83
2023/02/15 11:40:24;;;;;;;;;;;;;;;8.24;100.00;-18249.97;4985575;28;19917;-84
2023/02/15 11:42:51;;;;;;;;;;;;;;;8.28;100.00;-18250.94;4988477;28;20023;-83
2023/02/15 11:45:27;;;;;;;;;;;;;;;8.40;100.00;-18254.09;4982608;28;19922;-84
2023/02/15 11:47:53;;;;;;;;;;;;;;;8.51;100.00;-18257.28;4988612;28;20023;-84
2023/02/15 11:50:29;;;;;;;;;;;;;;;8.65;100.00;-18260.84;4988662;28;20064;-83
2023/02/15 11:53:04;;;;;;;;;;;;;;;8.71;100.00;-18262.63;4985066;28;20012;-81
2023/02/15 11:55:29;;;;;;;;;;;;;;;8.75;100.00;-18263.75;4986089;28;19922;-83
2023/02/15 11:58:04;;;;;;;;;;;;;;;8.85;100.00;-18266.34;5009371;28;19932;-84
2023/02/15 12:00:35;;;;;;;;;;;;;;;8.98;100.00;-18269.81;4990466;28;20049;-83
2023/02/15 12:03:05;;;;;;;;;;;;;;;9.12;100.00;-18273.66;4990822;28;19922;-83
2023/02/15 12:05:31;;;;;;;;;;;;;;;9.21;100.00;-18276.13;4992626;28;19929;-83
2023/02/15 12:08:09;;;;;;;;;;;;;;;9.27;100.00;-18277.78;4992754;28;19988;-83
2023/02/15 12:10:36;;;;;;;;;;;;;;;9.43;100.00;-18282.03;4996103;28;20407;-83
2023/02/15 12:13:10;;;;;;;;;;;;;;;9.46;100.00;-18282.72;4993128;28;20401;-83
2023/02/15 12:15:36;;;;;;;;;;;;;;;9.53;100.00;-18284.50;4987371;28;19922;-85
2023/02/15 12:18:01;;;;;;;;;;;;;;;9.70;100.00;-18289.19;4990614;28;19925;-83
2023/02/15 12:20:34;;;;;;;;;;;;;;;9.79;100.00;-18291.53;4992597;28;19928;-83
2023/02/15 12:23:05;;;;;;;;;;;;;;;9.96;100.00;-18296.06;4990438;28;19917;-84
2023/02/15 12:25:30;;;;;;;;;;;;;;;10.09;100.00;-18299.63;4994583;28;20445;-82
2023/02/15 12:27:56;;;;;;;;;;;;;;;10.22;100.00;-18303.22;4980753;28;19922;-82
2023/02/15 12:30:37;;;;;;;;;;;;;;;10.41;100.00;-18308.31;4985097;28;19972;-83
2023/02/15 12:33:14;;;;;;;;;;;;;;;10.52;100.00;-18311.31;4952429;28;20328;-82
2023/02/15 12:35:39;;;;;;;;;;;;;;;10.67;100.00;-18315.16;4990680;28;19965;-83
2023/02/15 12:38:05;;;;;;;;;;;;;;;10.75;100.00;-18317.50;4994282;28;19929;-83
2023/02/15 12:40:31;;;;;;;;;;;;;;;10.94;100.00;-18322.44;4985871;28;19924;-82
2023/02/15 12:42:57;;;;;;;;;;;;;;;11.03;100.00;-18325.06;4989529;28;19949;-82
2023/02/15 12:45:27;;;;;;;;;;;;;;;11.17;100.00;-18328.78;4988957;28;19977;-83
2023/02/15 12:48:11;;;;;;;;;;;;;;;11.27;100.00;-18331.38;4988960;28;19922;-83
2023/02/15 12:50:36;;;;;;;;;;;;;;;11.36;100.00;-18333.72;4992251;28;19926;-82
2023/02/15 12:53:23;;;;;;;;;;;;;;;11.38;100.00;-18334.25;4990781;28;19980;-82
2023/02/15 12:55:56;;;;;;;;;;;;;;;11.50;100.00;-18337.69;4988214;28;20014;-82
2023/02/15 12:58:24;;;;;;;;;;;;;;;11.63;100.00;-18341.00;4995242;28;20011;-83
2023/02/15 13:01:13;;;;;;;;;;;;;;;11.69;100.00;-18342.78;4991438;28;19945;-82
2023/02/15 13:03:51;;;;;;;;;;;;;;;11.75;100.00;-18344.41;4988961;28;20315;-82
2023/02/15 13:06:17;;;;;;;;;;;;;;;11.74;100.00;-18344.00;4986279;28;20028;-83
2023/02/15 13:08:47;;;;;;;;;;;;;;;11.81;100.00;-18345.94;4991536;28;20005;-82